Latest Weather Observations for Little Bay

IDN60901

Issued at 6:51 pm EDT Sunday 11 December 2016 (issued every 10 minutes, with the page automatically refreshed every 10 minutes)

About weather observations | Map of Sydney area stations | Latest observations for Sydney area | Other Formats
Station Details ID: 066051 Name: LITTLE BAY (THE COAST GOLF CLUB) Lat: -33.98 Lon: 151.25 Height: 22.0 m
Data from the previous 72 hours. | See also: Recent months for locations in New South Wales
Date/Time
EDT
Temp
°C
App
Temp
°C
Dew
Point
°C
Rel
Hum
%
Delta-T
°C
Wind Press
QNH
hPa
Press
MSL
hPa
Rain since
9am
mm
Dir  Spd
km/h
Gust
km/h
Spd
kts
Gust
kts
11/06:30pm - - - - - ENE 15 20 8 11 - - -
11/06:00pm - - - - - ENE 15 19 8 10 - - -
11/05:30pm - - - - - ENE 19 24 10 13 - - -
11/05:00pm - - - - - NE 19 26 10 14 - - -
11/04:30pm - - - - - NE 17 26 9 14 - - -
11/04:00pm - - - - - ENE 15 22 8 12 - - -
11/03:30pm - - - - - NE 13 20 7 11 - - -
11/03:00pm - - - - - ENE 20 30 11 16 - - -
11/02:30pm - - - - - NE 17 26 9 14 - - -
11/02:00pm - - - - - NE 17 24 9 13 - - -
11/01:30pm - - - - - ENE 19 22 10 12 - - -
11/01:00pm - - - - - ENE 15 20 8 11 - - -
11/12:30pm - - - - - ENE 15 20 8 11 - - -
11/12:00pm - - - - - ENE 17 20 9 11 - - -
11/11:30am - - - - - ENE 11 17 6 9 - - -
11/11:00am - - - - - NE 11 17 6 9 - - -
11/10:30am - - - - - NE 15 20 8 11 - - -
11/10:00am - - - - - NNE 19 26 10 14 - - -
11/09:30am - - - - - NNE 19 24 10 13 - - -
11/09:00am - - - - - N 20 28 11 15 - - -
11/08:30am - - - - - NNE 20 26 11 14 - - -
11/08:00am - - - - - NNE 19 24 10 13 - - -
11/07:30am - - - - - NNE 19 22 10 12 - - -
11/07:00am - - - - - N 13 19 7 10 - - -
11/06:30am - - - - - NNE 9 15 5 8 - - -
11/06:00am - - - - - NNE 11 17 6 9 - - -
11/05:30am - - - - - NNE 13 19 7 10 - - -
11/05:00am - - - - - NNE 13 20 7 11 - - -
11/04:30am - - - - - NNE 17 24 9 13 - - -
11/04:00am - - - - - NNE 15 20 8 11 - - -
11/03:30am - - - - - NNE 17 26 9 14 - - -
11/03:00am - - - - - NNE 19 24 10 13 - - -
11/02:30am - - - - - NNE 20 28 11 15 - - -
11/02:00am - - - - - NNE 22 28 12 15 - - -
11/01:30am - - - - - NNE 19 26 10 14 - - -
11/01:00am - - - - - NNE 19 28 10 15 - - -
11/12:30am - - - - - NNE 20 28 11 15 - - -
11/12:00am - - - - - NNE 20 28 11 15 - - -
 
Date/Time
EDT
Temp
°C
App
Temp
°C
Dew
Point
°C
Rel
Hum
%
Delta-T
°C
Wind Press
QNH
hPa
Press
MSL
hPa
Rain since
9am
mm
Dir  Spd
km/h
Gust
km/h
Spd
kts
Gust
kts
10/11:30pm - - - - - NNE 22 30 12 16 - - -
10/11:00pm - - - - - NNE 24 32 13 17 - - -
10/10:30pm - - - - - NNE 22 30 12 16 - - -
10/10:00pm - - - - - NNE 22 30 12 16 - - -
10/09:30pm - - - - - NNE 22 32 12 17 - - -
10/09:00pm - - - - - NNE 24 32 13 17 - - -
10/08:30pm - - - - - NE 24 33 13 18 - - -
10/08:00pm - - - - - NE 24 35 13 19 - - -
10/07:30pm - - - - - NE 22 32 12 17 - - -
10/07:00pm - - - - - NE 22 32 12 17 - - -
10/06:30pm - - - - - NE 19 26 10 14 - - -
10/06:00pm - - - - - NE 19 28 10 15 - - -
10/05:30pm - - - - - NE 20 32 11 17 - - -
10/05:00pm - - - - - NE 22 32 12 17 - - -
10/04:30pm - - - - - NE 20 30 11 16 - - -
10/04:00pm - - - - - NE 20 30 11 16 - - -
10/03:30pm - - - - - ENE 20 26 11 14 - - -
10/03:00pm - - - - - NE 17 24 9 13 - - -
10/02:30pm - - - - - NE 17 24 9 13 - - -
10/02:00pm - - - - - NE 17 24 9 13 - - -
10/01:30pm - - - - - NE 15 24 8 13 - - -
10/01:00pm - - - - - NE 15 20 8 11 - - -
10/12:30pm - - - - - ENE 13 19 7 10 - - -
10/12:00pm - - - - - ENE 15 19 8 10 - - -
10/11:30am - - - - - E 15 20 8 11 - - -
10/11:00am - - - - - E 11 17 6 9 - - -
10/10:30am - - - - - ESE 9 13 5 7 - - -
10/10:00am - - - - - E 7 9 4 5 - - -
10/09:30am - - - - - E 6 9 3 5 - - -
10/09:00am - - - - - SE 9 11 5 6 - - -
10/08:30am - - - - - SSE 11 13 6 7 - - -
10/08:00am - - - - - SE 11 17 6 9 - - -
10/07:30am - - - - - SE 15 19 8 10 - - -
10/07:00am - - - - - SE 15 19 8 10 - - -
10/06:30am - - - - - ESE 7 9 4 5 - - -
10/06:00am - - - - - SE 7 11 4 6 - - -
10/05:30am - - - - - WSW 4 7 2 4 - - -
10/05:00am - - - - - WSW 6 9 3 5 - - -
10/04:30am - - - - - S 2 6 1 3 - - -
10/04:00am - - - - - E 6 7 3 4 - - -
10/03:30am - - - - - ESE 7 11 4 6 - - -
10/03:00am - - - - - ESE 9 11 5 6 - - -
10/02:30am - - - - - SSE 15 19 8 10 - - -
10/02:00am - - - - - SE 13 17 7 9 - - -
10/01:30am - - - - - SSE 13 17 7 9 - - -
10/01:00am - - - - - SE 11 17 6 9 - - -
10/12:30am - - - - - SSE 11 15 6 8 - - -
10/12:00am - - - - - SSE 15 20 8 11 - - -
 
Date/Time
EDT
Temp
°C
App
Temp
°C
Dew
Point
°C
Rel
Hum
%
Delta-T
°C
Wind Press
QNH
hPa
Press
MSL
hPa
Rain since
9am
mm
Dir  Spd
km/h
Gust
km/h
Spd
kts
Gust
kts
09/11:30pm - - - - - SE 15 19 8 10 - - -
09/11:00pm - - - - - SE 15 20 8 11 - - -
09/10:30pm - - - - - SE 19 22 10 12 - - -
09/10:00pm - - - - - SE 19 28 10 15 - - -
09/09:30pm - - - - - SE 20 26 11 14 - - -
09/09:00pm - - - - - SE 24 30 13 16 - - -
09/08:30pm - - - - - SE 24 28 13 15 - - -
09/08:00pm - - - - - SSE 20 28 11 15 - - -
09/07:30pm - - - - - SSE 20 26 11 14 - - -
09/07:00pm - - - - - SSE 20 28 11 15 - - -
09/06:30pm - - - - - SSE 22 28 12 15 - - -
09/06:00pm - - - - - SE 19 24 10 13 - - -
09/05:30pm - - - - - SE 20 26 11 14 - - -
09/05:00pm - - - - - SE 20 26 11 14 - - -
09/04:30pm - - - - - SE 20 26 11 14 - - -
09/04:00pm - - - - - SE 20 26 11 14 - - -
09/03:30pm - - - - - ESE 20 24 11 13 - - -
09/03:00pm - - - - - SE 20 28 11 15 - - -
09/02:30pm - - - - - SE 22 32 12 17 - - -
09/02:00pm - - - - - W 19 28 10 15 - - -
09/01:30pm - - - - - W 22 33 12 18 - - -
09/01:00pm - - - - - W 20 35 11 19 - - -
09/12:30pm - - - - - W 24 37 13 20 - - -
09/12:00pm - - - - - W 24 35 13 19 - - -
09/11:30am - - - - - W 26 41 14 22 - - -
09/11:00am - - - - - W 24 35 13 19 - - -
09/10:30am - - - - - W 22 35 12 19 - - -
09/10:00am - - - - - WSW 22 37 12 20 - - -
09/09:30am - - - - - W 28 46 15 25 - - -
09/09:19am - - - - - W 28 48 15 26 - - -
09/09:00am - - - - - W 26 44 14 24 - - -
09/08:35am - - - - - W 28 46 15 25 - - -
09/08:30am - - - - - W 30 46 16 25 - - -
09/08:00am - - - - - W 22 35 12 19 - - -
09/07:30am - - - - - W 28 41 15 22 - - -
09/07:00am - - - - - W 22 32 12 17 - - -
09/06:30am - - - - - WSW 15 28 8 15 - - -
09/06:00am - - - - - WSW 20 32 11 17 - - -
09/05:30am - - - - - WSW 15 26 8 14 - - -
09/05:00am - - - - - SW 7 11 4 6 - - -
09/04:30am - - - - - SW 15 26 8 14 - - -
09/04:00am - - - - - WSW 17 28 9 15 - - -
09/03:30am - - - - - SW 17 32 9 17 - - -
09/03:00am - - - - - SW 24 43 13 23 - - -
09/02:30am - - - - - SW 19 32 10 17 - - -
09/02:00am - - - - - SW 26 39 14 21 - - -
09/01:30am - - - - - WSW 20 35 11 19 - - -
09/01:00am - - - - - WSW 32 43 17 23 - - -
09/12:39am - - - - - WSW 28 50 15 27 - - -
09/12:30am - - - - - WSW 24 43 13 23 - - -
09/12:00am - - - - - W 15 24 8 13 - - -
 
Date/Time
EDT
Temp
°C
App
Temp
°C
Dew
Point
°C
Rel
Hum
%
Delta-T
°C
Wind Press
QNH
hPa
Press
MSL
hPa
Rain since
9am
mm
Dir  Spd
km/h
Gust
km/h
Spd
kts
Gust
kts
08/11:30pm - - - - - WNW 11 19 6 10 - - -
08/11:00pm - - - - - W 9 19 5 10 - - -
08/10:30pm - - - - - SW 7 13 4 7 - - -
08/10:00pm - - - - - SSW 11 15 6 8 - - -
08/09:30pm - - - - - SSW 9 17 5 9 - - -
08/09:00pm - - - - - NNE 26 35 14 19 - - -
08/08:30pm - - - - - NNE 24 35 13 19 - - -
08/08:00pm - - - - - NNE 30 43 16 23 - - -
08/07:30pm - - - - - N 20 30 11 16 - - -
08/07:00pm - - - - - N 28 39 15 21 - - -

Latest Capital City Observations: Canberra | Sydney | Melbourne | Brisbane | Adelaide | Perth | Hobart | Darwin

Other Formats:

Comma delimited format used in spreadsheet applications
http://www.bom.gov.au/fwo/IDN60901/IDN60901.94780.axf

JavaScript Object Notation format (JSON) in row-major order
http://www.bom.gov.au/fwo/IDN60901/IDN60901.94780.json